Time;durP1;ratioP1;P1;durP2;ratioP2;P2;SDS_P1;SDS_P2;PMS_P1;PMS_P2;Temp;Humidity;BMP_temperature;BMP_pressure;BME280_temperature;BME280_humidity;BME280_pressure;Samples;Min_cycle;Max_cycle;Signal;HPM_P1;HPM_P2
2021/12/29 00:04:44;;;;;;;;;;;;;;;10.41;98.58;99968.91;10524105;28;19940;-82
2021/12/29 00:09:45;;;;;;;;;;;;;;;10.41;98.36;99979.56;10539274;28;19920;-82
2021/12/29 00:14:47;;;;;;;;;;;;;;;10.42;98.52;99977.78;10534360;28;19908;-83
2021/12/29 00:19:50;;;;;;;;;;;;;;;10.39;97.84;99983.34;10534285;28;19931;-83
2021/12/29 00:24:51;;;;;;;;;;;;;;;10.39;98.02;100002.03;10526661;28;19965;-82
2021/12/29 00:29:53;;;;;;;;;;;;;;;10.39;98.11;100012.72;10530540;28;19924;-83
2021/12/29 00:34:56;;;;;;;;;;;;;;;10.40;98.18;100019.78;10537917;28;20371;-82
2021/12/29 00:39:57;;;;;;;;;;;;;;;10.41;98.43;100027.63;10530527;28;19987;-83
2021/12/29 00:44:59;;;;;;;;;;;;;;;10.42;98.12;100032.00;10525408;28;19940;-83
2021/12/29 00:50:02;;;;;;;;;;;;;;;10.42;97.98;100024.00;10536109;28;19924;-82
2021/12/29 00:55:04;;;;;;;;;;;;;;;10.43;97.91;100043.53;10519186;28;19920;-82
2021/12/29 01:00:06;;;;;;;;;;;;;;;10.43;98.14;100047.03;10518757;28;19927;-83
2021/12/29 01:05:10;;;;;;;;;;;;;;;10.45;98.57;100062.94;10532712;28;20643;-83
2021/12/29 01:10:13;;;;;;;;;;;;;;;10.43;97.80;100080.91;10529204;28;20029;-83
2021/12/29 01:15:17;;;;;;;;;;;;;;;10.46;98.88;100096.66;10523643;28;20275;-82
2021/12/29 01:20:20;;;;;;;;;;;;;;;10.47;98.37;100104.56;10526788;28;20012;-83
2021/12/29 01:25:22;;;;;;;;;;;;;;;10.49;98.55;100115.09;10524746;28;19924;-83
2021/12/29 01:30:24;;;;;;;;;;;;;;;10.47;98.38;100125.03;10520906;28;20563;-83
2021/12/29 01:35:27;;;;;;;;;;;;;;;10.48;98.79;100138.28;10529691;28;19957;-83
2021/12/29 01:40:29;;;;;;;;;;;;;;;10.48;98.33;100151.63;10518600;28;19931;-83
2021/12/29 01:45:30;;;;;;;;;;;;;;;10.45;98.61;100157.25;10527551;28;19970;-83
2021/12/29 01:50:35;;;;;;;;;;;;;;;10.47;98.74;100147.28;10530019;28;20094;-83
2021/12/29 01:55:37;;;;;;;;;;;;;;;10.46;98.03;100150.91;10529418;28;19920;-83
2021/12/29 02:00:41;;;;;;;;;;;;;;;10.46;98.61;100150.06;10522849;28;19920;-82
2021/12/29 02:05:44;;;;;;;;;;;;;;;10.49;98.75;100168.47;10527250;28;19924;-83
2021/12/29 02:10:46;;;;;;;;;;;;;;;10.49;98.60;100173.81;10513786;28;19920;-83
2021/12/29 02:15:48;;;;;;;;;;;;;;;10.49;98.80;100182.72;10513648;28;20372;-82
2021/12/29 02:20:53;;;;;;;;;;;;;;;10.51;98.98;100190.59;10521270;28;19946;-83
2021/12/29 02:25:55;;;;;;;;;;;;;;;10.50;98.49;100183.53;10526281;28;19924;-83
2021/12/29 02:30:59;;;;;;;;;;;;;;;10.47;98.00;100182.00;10518141;28;19923;-83
2021/12/29 02:36:03;;;;;;;;;;;;;;;10.48;98.15;100180.16;10536453;28;19959;-83
2021/12/29 02:41:06;;;;;;;;;;;;;;;10.47;98.43;100186.44;10530324;28;19957;-83
2021/12/29 02:46:11;;;;;;;;;;;;;;;10.46;98.33;100203.47;10523301;28;20344;-84
2021/12/29 02:51:14;;;;;;;;;;;;;;;10.47;98.73;100210.50;10535429;28;19924;-83
2021/12/29 02:56:16;;;;;;;;;;;;;;;10.48;98.84;100220.22;10521668;28;19921;-81
2021/12/29 03:01:20;;;;;;;;;;;;;;;10.47;99.04;100238.06;10520532;28;19920;-84
2021/12/29 03:06:24;;;;;;;;;;;;;;;10.48;99.05;100249.56;10533806;28;19924;-83
2021/12/29 03:11:25;;;;;;;;;;;;;;;10.47;98.67;100259.41;10531525;28;20008;-83
2021/12/29 03:16:27;;;;;;;;;;;;;;;10.44;98.29;100256.97;10537629;28;19935;-83
2021/12/29 03:21:30;;;;;;;;;;;;;;;10.42;98.67;100268.78;10521595;28;20459;-81
2021/12/29 03:26:32;;;;;;;;;;;;;;;10.42;98.56;100266.94;10534801;28;19973;-82
2021/12/29 03:31:37;;;;;;;;;;;;;;;10.39;98.83;100269.00;10523952;28;19930;-82
2021/12/29 03:36:40;;;;;;;;;;;;;;;10.38;98.68;100292.19;10536852;28;19989;-84
2021/12/29 03:41:42;;;;;;;;;;;;;;;10.36;98.54;100288.81;10524471;28;19935;-83
2021/12/29 03:46:43;;;;;;;;;;;;;;;10.33;98.88;100300.53;10525828;28;19927;-84
2021/12/29 03:51:46;;;;;;;;;;;;;;;10.31;98.52;100296.31;10538963;28;20311;-83
2021/12/29 03:56:47;;;;;;;;;;;;;;;10.33;98.68;100297.88;10530816;28;19946;-83
2021/12/29 04:01:52;;;;;;;;;;;;;;;10.33;98.46;100297.88;10533633;28;19920;-82
2021/12/29 04:06:55;;;;;;;;;;;;;;;10.33;98.36;100305.88;10532356;28;20334;-84
2021/12/29 04:11:56;;;;;;;;;;;;;;;10.31;98.39;100315.84;10539913;28;19923;-83
2021/12/29 04:17:07;;;;;;;;;;;;;;;10.31;98.31;100315.84;10533723;28;19924;-83
2021/12/29 04:22:10;;;;;;;;;;;;;;;10.34;98.38;100314.78;10525325;28;19924;-83
2021/12/29 04:27:12;;;;;;;;;;;;;;;10.36;98.28;100325.28;10532258;28;19929;-83
2021/12/29 04:32:13;;;;;;;;;;;;;;;10.33;97.72;100324.56;10521038;28;19920;-84
2021/12/29 04:37:16;;;;;;;;;;;;;;;10.33;98.02;100345.94;10539407;28;19924;-84
2021/12/29 04:42:17;;;;;;;;;;;;;;;10.33;98.21;100345.09;10529205;28;19920;-83
2021/12/29 04:47:27;;;;;;;;;;;;;;;10.33;97.89;100356.59;10520945;28;20284;-84
2021/12/29 04:52:31;;;;;;;;;;;;;;;10.36;98.25;100352.00;10524739;28;19920;-83
2021/12/29 04:57:32;;;;;;;;;;;;;;;10.35;98.00;100352.97;10528505;28;19923;-83
2021/12/29 05:02:34;;;;;;;;;;;;;;;10.36;97.53;100365.34;10528940;28;19931;-83
2021/12/29 05:12:56;;;;;;;;;;;;;;;10.36;97.81;100371.56;10525137;28;19971;-83
2021/12/29 05:17:58;;;;;;;;;;;;;;;10.37;97.47;100369.72;10529390;28;19920;-83
2021/12/29 05:23:01;;;;;;;;;;;;;;;10.36;97.50;100366.22;10532194;28;19974;-83
2021/12/29 05:28:03;;;;;;;;;;;;;;;10.39;98.02;100363.28;10525718;28;19928;-84
2021/12/29 05:33:05;;;;;;;;;;;;;;;10.42;97.43;100379.06;10519470;28;19932;-83
2021/12/29 05:38:08;;;;;;;;;;;;;;;10.43;97.50;100371.91;10516368;28;19923;-83
2021/12/29 05:43:09;;;;;;;;;;;;;;;10.42;97.13;100378.22;10518808;28;19928;-83
2021/12/29 05:48:11;;;;;;;;;;;;;;;10.42;96.76;100387.09;10535598;28;19926;-82
2021/12/29 05:53:14;;;;;;;;;;;;;;;10.41;97.22;100395.22;10525585;28;19927;-84
2021/12/29 05:58:15;;;;;;;;;;;;;;;10.40;96.80;100388.19;10522928;28;19977;-83
2021/12/29 06:03:19;;;;;;;;;;;;;;;10.37;96.95;100394.59;10521051;28;19952;-82
2021/12/29 06:08:22;;;;;;;;;;;;;;;10.36;96.83;100408.06;10527971;28;20344;-83
2021/12/29 06:13:23;;;;;;;;;;;;;;;10.37;96.61;100399.94;10524322;28;19920;-83
2021/12/29 06:18:24;;;;;;;;;;;;;;;10.37;96.57;100407.94;10514862;28;20269;-83
2021/12/29 06:23:27;;;;;;;;;;;;;;;10.38;96.59;100404.31;10529435;28;19924;-83
2021/12/29 06:28:29;;;;;;;;;;;;;;;10.39;95.91;100405.16;10516780;28;20339;-83
2021/12/29 06:33:30;;;;;;;;;;;;;;;10.36;96.10;100405.38;10533664;28;19920;-82
2021/12/29 06:38:34;;;;;;;;;;;;;;;10.38;96.44;100425.69;10515494;28;19946;-82
2021/12/29 06:43:35;;;;;;;;;;;;;;;10.39;95.41;100416.69;10525534;28;20394;-83
2021/12/29 06:48:37;;;;;;;;;;;;;;;10.40;95.93;100418.41;10527464;28;19920;-83
2021/12/29 06:53:40;;;;;;;;;;;;;;;10.41;95.56;100432.59;10530148;28;19943;-82
2021/12/29 06:58:41;;;;;;;;;;;;;;;10.38;95.31;100431.00;10532820;28;19931;-83
2021/12/29 07:03:44;;;;;;;;;;;;;;;10.38;95.57;100439.03;10513632;28;19920;-82
2021/12/29 07:08:46;;;;;;;;;;;;;;;10.39;95.31;100453.22;10527917;28;20383;-83
2021/12/29 07:13:49;;;;;;;;;;;;;;;10.32;95.17;100455.50;10524638;28;19976;-82
2021/12/29 07:18:50;;;;;;;;;;;;;;;10.36;95.33;100464.13;10534777;28;19977;-83
2021/12/29 07:23:54;;;;;;;;;;;;;;;10.35;95.13;100473.97;10537942;28;20505;-82
2021/12/29 07:28:56;;;;;;;;;;;;;;;10.35;95.12;100465.09;10547704;28;20288;-83
2021/12/29 07:33:57;;;;;;;;;;;;;;;10.35;95.19;100462.44;10531083;28;20433;-83
2021/12/29 07:39:00;;;;;;;;;;;;;;;10.35;95.18;100463.28;10535696;28;19927;-83
2021/12/29 07:44:03;;;;;;;;;;;;;;;10.32;94.90;100452.81;10523127;28;19942;-82
2021/12/29 07:49:05;;;;;;;;;;;;;;;10.34;95.45;100453.59;10533274;28;19924;-83
2021/12/29 07:54:08;;;;;;;;;;;;;;;10.35;95.29;100449.09;10530857;28;19920;-82
2021/12/29 07:59:10;;;;;;;;;;;;;;;10.33;94.65;100459.88;10517109;28;19931;-82
2021/12/29 08:04:11;;;;;;;;;;;;;;;10.30;94.67;100454.72;10522002;28;20019;-84
2021/12/29 08:09:14;;;;;;;;;;;;;;;10.32;95.25;100458.16;10519262;28;20032;-82
2021/12/29 08:14:16;;;;;;;;;;;;;;;10.33;95.44;100460.72;10521623;28;19928;-83
2021/12/29 08:19:19;;;;;;;;;;;;;;;10.29;94.67;100477.06;10525539;28;19973;-83
2021/12/29 08:24:22;;;;;;;;;;;;;;;10.27;95.61;100455.81;10528014;28;19993;-83
2021/12/29 08:29:23;;;;;;;;;;;;;;;10.30;94.86;100449.38;10521450;28;19981;-82
2021/12/29 08:34:25;;;;;;;;;;;;;;;10.30;94.41;100468.97;10522765;28;19921;-82
2021/12/29 08:39:28;;;;;;;;;;;;;;;10.27;94.18;100468.34;10527019;28;19924;-83
2021/12/29 08:44:30;;;;;;;;;;;;;;;10.20;93.71;100467.94;10519440;28;19920;-82
2021/12/29 08:49:31;;;;;;;;;;;;;;;10.19;93.55;100476.06;10531194;28;20015;-84
2021/12/29 08:54:34;;;;;;;;;;;;;;;10.18;93.74;100463.69;10529698;28;19927;-83
2021/12/29 08:59:36;;;;;;;;;;;;;;;10.20;93.81;100457.25;10521134;28;19935;-82
2021/12/29 09:04:38;;;;;;;;;;;;;;;10.22;93.78;100451.81;10519350;28;19936;-82
2021/12/29 09:09:40;;;;;;;;;;;;;;;10.16;92.92;100460.28;10531176;28;19924;-82
2021/12/29 09:14:44;;;;;;;;;;;;;;;10.14;93.24;100461.25;10518717;28;19971;-83
2021/12/29 09:19:45;;;;;;;;;;;;;;;10.13;93.18;100466.69;10520789;28;19931;-82
2021/12/29 09:24:49;;;;;;;;;;;;;;;10.03;92.06;100449.69;10521061;28;19924;-82
2021/12/29 09:29:55;;;;;;;;;;;;;;;10.00;92.39;100457.91;10525944;28;20326;-83
2021/12/29 09:34:59;;;;;;;;;;;;;;;10.00;92.22;100460.59;10535002;28;19924;-82
2021/12/29 09:40:02;;;;;;;;;;;;;;;9.98;92.15;100454.53;10526676;28;20347;-82
2021/12/29 09:45:04;;;;;;;;;;;;;;;9.96;92.42;100454.63;10526552;28;20257;-82
2021/12/29 09:50:08;;;;;;;;;;;;;;;9.92;92.17;100446.00;10531015;28;19920;-82
2021/12/29 09:55:13;;;;;;;;;;;;;;;9.90;92.17;100442.59;10519034;28;20298;-83
2021/12/29 10:00:21;;;;;;;;;;;;;;;9.92;92.47;100434.50;10530423;28;20292;-82
2021/12/29 10:05:24;;;;;;;;;;;;;;;9.92;92.36;100422.00;10529709;28;19920;-82
2021/12/29 10:10:27;;;;;;;;;;;;;;;9.93;92.64;100417.53;10521031;28;19920;-82
2021/12/29 10:15:30;;;;;;;;;;;;;;;9.92;92.71;100413.16;10527649;28;19928;-82
2021/12/29 10:20:32;;;;;;;;;;;;;;;9.90;92.16;100396.41;10531615;28;20285;-82
2021/12/29 10:25:35;;;;;;;;;;;;;;;9.93;92.62;100406.88;10530830;28;19963;-83
2021/12/29 10:30:37;;;;;;;;;;;;;;;9.92;92.23;100415.81;10538346;28;19927;-82
2021/12/29 10:35:38;;;;;;;;;;;;;;;9.92;92.09;100406.00;10532398;28;19924;-82
2021/12/29 10:40:41;;;;;;;;;;;;;;;9.96;92.30;100408.44;10525696;28;20306;-82
2021/12/29 10:45:46;;;;;;;;;;;;;;;9.98;92.91;100414.50;10531592;28;19959;-82
2021/12/29 10:50:58;;;;;;;;;;;;;;;9.97;92.04;100415.50;10531753;28;20384;-83
2021/12/29 10:56:02;;;;;;;;;;;;;;;9.91;91.92;100400.78;10537976;28;19928;-81
2021/12/29 11:01:05;;;;;;;;;;;;;;;9.91;92.46;100398.13;10528377;28;19964;-82
2021/12/29 11:06:12;;;;;;;;;;;;;;;9.97;92.95;100386.97;10529248;28;20351;-83
2021/12/29 11:11:15;;;;;;;;;;;;;;;10.04;93.33;100374.88;10525305;28;19920;-82
2021/12/29 11:16:19;;;;;;;;;;;;;;;10.06;93.04;100343.59;10537971;28;19930;-82
2021/12/29 11:21:24;;;;;;;;;;;;;;;10.09;93.06;100345.16;10535342;28;19924;-82
2021/12/29 11:26:31;;;;;;;;;;;;;;;10.15;93.41;100352.66;10536320;28;19924;-82
2021/12/29 11:31:33;;;;;;;;;;;;;;;10.17;93.20;100349.88;10538506;28;19929;-82
2021/12/29 11:36:35;;;;;;;;;;;;;;;10.18;93.14;100346.25;10531326;28;20275;-82
2021/12/29 11:41:38;;;;;;;;;;;;;;;10.23;93.49;100341.44;10527007;28;19928;-82
2021/12/29 11:46:39;;;;;;;;;;;;;;;10.23;93.25;100342.25;10529648;28;19920;-82
2021/12/29 11:51:45;;;;;;;;;;;;;;;10.18;92.68;100330.25;10534333;28;19930;-82
2021/12/29 11:56:48;;;;;;;;;;;;;;;10.21;93.40;100332.66;10532516;28;19974;-82
2021/12/29 12:01:55;;;;;;;;;;;;;;;10.22;93.08;100321.88;10526687;28;19928;-84
2021/12/29 12:07:00;;;;;;;;;;;;;;;10.23;93.43;100312.91;10512526;28;19924;-83
2021/12/29 12:12:04;;;;;;;;;;;;;;;10.21;93.76;100297.97;10513632;28;19928;-82
2021/12/29 12:17:07;;;;;;;;;;;;;;;10.17;93.12;100305.41;10518362;28;19928;-82
2021/12/29 12:22:11;;;;;;;;;;;;;;;10.16;93.32;100292.16;10512256;28;20045;-81
2021/12/29 12:27:25;;;;;;;;;;;;;;;10.15;93.18;100301.97;10512891;28;19925;-82
2021/12/29 12:32:26;;;;;;;;;;;;;;;10.16;93.21;100290.34;10529205;28;19920;-82
2021/12/29 12:37:31;;;;;;;;;;;;;;;10.18;93.85;100283.06;10528137;28;19927;-82
2021/12/29 12:42:35;;;;;;;;;;;;;;;10.26;94.33;100267.28;10528837;28;19973;-83
2021/12/29 12:47:38;;;;;;;;;;;;;;;10.22;93.53;100246.31;10540340;28;19921;-83
2021/12/29 12:52:41;;;;;;;;;;;;;;;10.22;93.63;100239.13;10518094;28;20320;-82
2021/12/29 12:57:47;;;;;;;;;;;;;;;10.27;94.23;100228.94;10531970;28;20240;-82
2021/12/29 13:02:50;;;;;;;;;;;;;;;10.27;94.64;100230.78;10530317;28;19957;-82
2021/12/29 13:08:03;;;;;;;;;;;;;;;10.31;94.78;100219.75;10527270;28;19920;-81
2021/12/29 13:13:11;;;;;;;;;;;;;;;10.36;94.75;100208.72;10523243;28;19920;-82
2021/12/29 13:18:15;;;;;;;;;;;;;;;10.36;94.88;100223.84;10522289;28;19904;-82
2021/12/29 13:23:21;;;;;;;;;;;;;;;10.34;95.28;100216.00;10533835;28;20376;-83
2021/12/29 13:28:25;;;;;;;;;;;;;;;10.31;95.42;100217.06;10532939;28;19927;-83
2021/12/29 13:33:28;;;;;;;;;;;;;;;10.30;95.54;100186.03;10530804;28;19924;-83
2021/12/29 13:38:31;;;;;;;;;;;;;;;10.32;95.89;100176.06;10532562;28;19920;-84
2021/12/29 13:43:36;;;;;;;;;;;;;;;10.31;95.91;100173.53;10519656;28;19920;-84
2021/12/29 13:48:39;;;;;;;;;;;;;;;10.34;96.54;100162.63;10518155;28;19925;-83
2021/12/29 13:53:46;;;;;;;;;;;;;;;10.32;96.73;100159.19;10524932;28;20254;-82
2021/12/29 13:58:57;;;;;;;;;;;;;;;10.36;97.08;100163.31;10535599;28;19997;-82
2021/12/29 14:03:59;;;;;;;;;;;;;;;10.37;97.15;100135.66;10532513;28;19924;-83
2021/12/29 14:09:01;;;;;;;;;;;;;;;10.42;97.12;100117.44;10524381;28;20008;-82
2021/12/29 14:14:05;;;;;;;;;;;;;;;10.41;97.45;100120.22;10515005;28;20300;-82
2021/12/29 14:19:08;;;;;;;;;;;;;;;10.47;97.51;100138.41;10527114;28;19931;-82
2021/12/29 14:24:12;;;;;;;;;;;;;;;10.45;97.36;100149.22;10524733;28;19921;-82
2021/12/29 14:29:19;;;;;;;;;;;;;;;10.47;97.78;100157.09;10521994;28;20383;-83
2021/12/29 14:34:22;;;;;;;;;;;;;;;10.44;97.78;100144.84;10523794;28;19927;-82
2021/12/29 14:39:24;;;;;;;;;;;;;;;10.45;98.27;100140.34;10518006;28;20335;-82
2021/12/29 14:44:27;;;;;;;;;;;;;;;10.44;99.15;100147.53;10522170;28;19924;-83
2021/12/29 14:49:29;;;;;;;;;;;;;;;10.45;99.18;100141.22;10522165;28;19919;-82
2021/12/29 14:54:35;;;;;;;;;;;;;;;10.50;99.17;100147.00;10520338;28;19927;-82
2021/12/29 14:59:38;;;;;;;;;;;;;;;10.48;99.70;100126.75;10523264;28;19934;-82
2021/12/29 15:04:40;;;;;;;;;;;;;;;10.51;100.00;100103.31;10514616;28;19931;-82
2021/12/29 15:09:42;;;;;;;;;;;;;;;10.56;100.00;100120.78;10532484;28;19928;-82
2021/12/29 15:14:44;;;;;;;;;;;;;;;10.62;100.00;100131.78;10528851;28;19924;-82
2021/12/29 15:19:46;;;;;;;;;;;;;;;10.68;100.00;100130.41;10534002;28;19928;-82
2021/12/29 15:24:48;;;;;;;;;;;;;;;10.70;100.00;100126.66;10526070;28;20552;-82
2021/12/29 15:29:51;;;;;;;;;;;;;;;10.74;100.00;100137.06;10528468;28;19920;-83
2021/12/29 15:34:54;;;;;;;;;;;;;;;10.78;100.00;100141.19;10522315;28;20288;-82
2021/12/29 15:39:56;;;;;;;;;;;;;;;10.81;100.00;100131.09;10531489;28;19928;-82
2021/12/29 15:44:59;;;;;;;;;;;;;;;10.87;100.00;100146.63;10528537;28;19924;-82
2021/12/29 15:50:01;;;;;;;;;;;;;;;10.90;100.00;100135.66;10523129;28;19927;-83
2021/12/29 15:55:02;;;;;;;;;;;;;;;10.97;100.00;100148.50;10523076;28;20332;-82
2021/12/29 16:00:08;;;;;;;;;;;;;;;11.04;100.00;100158.53;10519796;28;19927;-82
2021/12/29 16:05:09;;;;;;;;;;;;;;;11.10;100.00;100160.69;10515002;28;20364;-82
2021/12/29 16:10:11;;;;;;;;;;;;;;;11.16;100.00;100155.81;10518246;28;19935;-84
2021/12/29 16:15:16;;;;;;;;;;;;;;;11.22;100.00;100163.28;10513850;28;19920;-83
2021/12/29 16:20:17;;;;;;;;;;;;;;;11.27;100.00;100163.75;10527507;28;19920;-82
2021/12/29 16:25:22;;;;;;;;;;;;;;;11.35;100.00;100168.44;10513697;28;19932;-82
2021/12/29 16:30:25;;;;;;;;;;;;;;;11.41;100.00;100166.06;10509890;28;20007;-83
2021/12/29 16:35:28;;;;;;;;;;;;;;;11.48;100.00;100169.06;10527669;28;20273;-83
2021/12/29 16:40:29;;;;;;;;;;;;;;;11.56;100.00;100192.47;10525267;28;19924;-83
2021/12/29 16:45:33;;;;;;;;;;;;;;;11.62;100.00;100191.94;10515277;28;20396;-82
2021/12/29 16:50:35;;;;;;;;;;;;;;;11.69;100.00;100180.56;10519009;28;19924;-83
2021/12/29 16:55:39;;;;;;;;;;;;;;;11.78;100.00;100183.44;10520362;28;20343;-83
2021/12/29 17:00:42;;;;;;;;;;;;;;;11.82;100.00;100185.69;10510208;28;20017;-83
2021/12/29 17:05:43;;;;;;;;;;;;;;;11.93;100.00;100179.44;10515122;28;19920;-83
2021/12/29 17:10:45;;;;;;;;;;;;;;;11.99;100.00;100211.03;10518719;28;19935;-83
2021/12/29 17:15:48;;;;;;;;;;;;;;;12.05;100.00;100215.84;10512714;28;19948;-83
2021/12/29 17:20:50;;;;;;;;;;;;;;;11.67;100.00;100112.16;10513775;28;19927;-82
2021/12/29 17:25:56;;;;;;;;;;;;;;;12.18;100.00;100212.06;10510795;28;19931;-83
2021/12/29 17:30:59;;;;;;;;;;;;;;;12.24;100.00;100215.06;10506123;28;19977;-82
2021/12/29 17:36:00;;;;;;;;;;;;;;;12.27;100.00;100246.06;10518604;28;20311;-84
2021/12/29 17:41:02;;;;;;;;;;;;;;;12.32;100.00;100275.97;10520330;28;19930;-82
2021/12/29 17:46:05;;;;;;;;;;;;;;;12.36;100.00;100272.03;10515331;28;20411;-84
2021/12/29 17:51:06;;;;;;;;;;;;;;;12.37;100.00;100273.72;10514270;28;19915;-83
2021/12/29 17:56:08;;;;;;;;;;;;;;;12.41;100.00;100290.38;10512737;28;20335;-83
2021/12/29 18:01:11;;;;;;;;;;;;;;;12.39;100.00;100293.16;10506048;28;19928;-83
2021/12/29 18:06:12;;;;;;;;;;;;;;;12.41;100.00;100306.44;10498181;28;19941;-82
2021/12/29 18:11:14;;;;;;;;;;;;;;;12.42;100.00;100325.06;10520023;28;19924;-81
2021/12/29 18:16:17;;;;;;;;;;;;;;;12.44;100.00;100319.56;10509849;28;19930;-84
2021/12/29 18:21:19;;;;;;;;;;;;;;;12.45;100.00;100326.59;10513694;28;19928;-83
2021/12/29 18:26:20;;;;;;;;;;;;;;;12.46;100.00;100347.06;10523382;28;19924;-83
2021/12/29 18:31:23;;;;;;;;;;;;;;;12.42;100.00;100362.56;10515128;28;20006;-84
2021/12/29 18:36:24;;;;;;;;;;;;;;;12.44;100.00;100363.25;10509564;28;20283;-83
2021/12/29 18:41:27;;;;;;;;;;;;;;;12.42;100.00;100359.88;10519663;28;19925;-81
2021/12/29 18:46:30;;;;;;;;;;;;;;;12.40;100.00;100367.19;10511329;28;19967;-81
2021/12/29 18:51:32;;;;;;;;;;;;;;;12.44;100.00;100375.81;10521803;28;19947;-82
2021/12/29 18:56:34;;;;;;;;;;;;;;;12.43;100.00;100396.41;10524693;28;19929;-82
2021/12/29 19:01:38;;;;;;;;;;;;;;;12.44;100.00;100391.91;10515339;28;19992;-82
2021/12/29 19:06:41;;;;;;;;;;;;;;;12.41;100.00;100393.03;10521905;28;19924;-82
2021/12/29 19:11:42;;;;;;;;;;;;;;;12.38;100.00;100421.91;10521057;28;19928;-83
2021/12/29 19:16:45;;;;;;;;;;;;;;;12.37;100.00;100422.84;10520623;28;19928;-82
2021/12/29 19:21:47;;;;;;;;;;;;;;;12.36;100.00;100440.78;10519403;28;19928;-82
2021/12/29 19:26:48;;;;;;;;;;;;;;;12.35;100.00;100451.59;10522107;28;19925;-82
2021/12/29 19:31:56;;;;;;;;;;;;;;;12.33;100.00;100475.00;10516352;28;19935;-82
2021/12/29 19:36:58;;;;;;;;;;;;;;;12.33;100.00;100477.69;10512706;28;19931;-82
2021/12/29 19:42:01;;;;;;;;;;;;;;;12.30;100.00;100492.19;10523417;28;19964;-83
2021/12/29 19:47:04;;;;;;;;;;;;;;;12.30;100.00;100515.41;10513549;28;19955;-84
2021/12/29 19:52:06;;;;;;;;;;;;;;;12.27;100.00;100538.81;10512138;28;19969;-84
2021/12/29 19:57:07;;;;;;;;;;;;;;;12.26;100.00;100544.28;10523759;28;19920;-83
2021/12/29 20:02:11;;;;;;;;;;;;;;;12.21;100.00;100551.88;10518535;28;19924;-83
2021/12/29 20:07:13;;;;;;;;;;;;;;;12.19;99.48;100576.09;10516273;28;19978;-83
2021/12/29 20:12:14;;;;;;;;;;;;;;;12.16;99.15;100549.56;10516346;28;19924;-84
2021/12/29 20:17:17;;;;;;;;;;;;;;;12.11;99.78;100562.50;10520358;28;19920;-82
2021/12/29 20:22:19;;;;;;;;;;;;;;;12.07;99.07;100577.09;10516342;28;19928;-83
2021/12/29 20:27:20;;;;;;;;;;;;;;;12.03;99.40;100581.84;10522812;28;19947;-84
2021/12/29 20:32:25;;;;;;;;;;;;;;;12.00;98.84;100590.16;10526114;28;19920;-84
2021/12/29 20:37:27;;;;;;;;;;;;;;;11.96;99.17;100590.50;10515778;28;20287;-84
2021/12/29 20:42:31;;;;;;;;;;;;;;;11.89;99.06;100611.56;10518010;28;19921;-82
2021/12/29 20:47:34;;;;;;;;;;;;;;;11.81;97.99;100620.19;10516398;28;20407;-83
2021/12/29 20:52:35;;;;;;;;;;;;;;;11.75;98.37;100615.31;10518555;28;19920;-83
2021/12/29 20:57:37;;;;;;;;;;;;;;;11.72;99.03;100633.47;10509480;28;19919;-84
2021/12/29 21:02:40;;;;;;;;;;;;;;;11.66;98.48;100641.00;10510269;28;19925;-83
2021/12/29 21:07:46;;;;;;;;;;;;;;;11.65;98.37;100657.19;10513316;28;19928;-83
2021/12/29 21:12:48;;;;;;;;;;;;;;;11.58;98.25;100672.84;10526181;28;20380;-82
2021/12/29 21:17:51;;;;;;;;;;;;;;;11.51;98.72;100687.69;10522658;28;19928;-82
2021/12/29 21:22:53;;;;;;;;;;;;;;;11.42;98.78;100704.47;10504394;28;19924;-82
2021/12/29 21:27:55;;;;;;;;;;;;;;;11.38;98.11;100717.22;10506141;28;19927;-81
2021/12/29 21:32:58;;;;;;;;;;;;;;;11.36;97.95;100721.84;10511124;28;20273;-82
2021/12/29 21:38:00;;;;;;;;;;;;;;;11.29;98.28;100729.47;10522512;28;19923;-83
2021/12/29 21:43:01;;;;;;;;;;;;;;;11.25;97.61;100745.88;10517972;28;20288;-82
2021/12/29 21:48:06;;;;;;;;;;;;;;;11.19;98.09;100767.69;10515383;28;20475;-82
2021/12/29 21:53:09;;;;;;;;;;;;;;;11.16;98.20;100771.47;10525007;28;19977;-82
2021/12/29 21:58:10;;;;;;;;;;;;;;;11.10;99.00;100779.97;10516121;28;19935;-82
2021/12/29 22:03:13;;;;;;;;;;;;;;;11.00;98.34;100782.47;10523711;28;19927;-83
2021/12/29 22:08:15;;;;;;;;;;;;;;;10.99;98.54;100790.59;10517108;28;19920;-83
2021/12/29 22:13:18;;;;;;;;;;;;;;;10.98;99.33;100781.72;10515797;28;19920;-83
2021/12/29 22:18:21;;;;;;;;;;;;;;;10.95;99.70;100783.78;10522528;28;19920;-82
2021/12/29 22:23:22;;;;;;;;;;;;;;;10.96;99.92;100788.13;10529265;28;19994;-82
2021/12/29 22:28:24;;;;;;;;;;;;;;;10.97;100.00;100792.53;10528101;28;20376;-82
2021/12/29 22:33:27;;;;;;;;;;;;;;;10.96;100.00;100791.66;10525729;28;19928;-82
2021/12/29 22:38:30;;;;;;;;;;;;;;;10.96;100.00;100778.28;10518146;28;20390;-82
2021/12/29 22:43:32;;;;;;;;;;;;;;;10.98;100.00;100794.22;10517895;28;20400;-82
2021/12/29 22:48:35;;;;;;;;;;;;;;;10.95;100.00;100800.66;10522628;28;19931;-83
2021/12/29 22:53:36;;;;;;;;;;;;;;;11.00;100.00;100813.66;10517817;28;19924;-83
2021/12/29 22:58:38;;;;;;;;;;;;;;;11.02;100.00;100822.41;10520889;28;19920;-82
2021/12/29 23:03:43;;;;;;;;;;;;;;;11.03;100.00;100806.28;10513762;28;19920;-82
2021/12/29 23:08:44;;;;;;;;;;;;;;;11.04;100.00;100824.03;10513453;28;19920;-82
2021/12/29 23:13:49;;;;;;;;;;;;;;;11.07;100.00;100833.63;10521217;28;19930;-81
2021/12/29 23:18:52;;;;;;;;;;;;;;;11.09;100.00;100848.59;10522886;28;19926;-82
2021/12/29 23:24:01;;;;;;;;;;;;;;;11.13;100.00;100846.53;10517869;28;19977;-82
2021/12/29 23:29:04;;;;;;;;;;;;;;;11.16;100.00;100845.47;10510138;28;19926;-82
2021/12/29 23:34:07;;;;;;;;;;;;;;;11.16;100.00;100842.81;10528669;28;19928;-82
2021/12/29 23:39:10;;;;;;;;;;;;;;;11.20;100.00;100846.94;10523173;28;19972;-82
2021/12/29 23:44:12;;;;;;;;;;;;;;;11.21;100.00;100851.34;10522628;28;19950;-82
2021/12/29 23:49:14;;;;;;;;;;;;;;;11.24;100.00;100853.78;10522841;28;19924;-82
2021/12/29 23:54:17;;;;;;;;;;;;;;;11.26;100.00;100865.19;10523530;28;19924;-81
2021/12/29 23:59:19;;;;;;;;;;;;;;;11.28;100.00;100849.88;10521658;28;20015;-81
